sensor_id;sensor_type;location;lat;lon;timestamp;P1;durP1;ratioP1;P2;durP2;ratioP2
10769;SDS011;5437;50.852;4.438;2023-05-10T00:01:38;9.07;;;6.40;;
10769;SDS011;5437;50.852;4.438;2023-05-10T00:04:05;8.15;;;5.63;;
10769;SDS011;5437;50.852;4.438;2023-05-10T00:06:31;8.18;;;5.78;;
10769;SDS011;5437;50.852;4.438;2023-05-10T00:08:57;10.88;;;6.20;;
10769;SDS011;5437;50.852;4.438;2023-05-10T00:11:23;10.05;;;6.05;;
10769;SDS011;5437;50.852;4.438;2023-05-10T00:13:49;9.68;;;6.50;;
10769;SDS011;5437;50.852;4.438;2023-05-10T00:16:15;8.75;;;6.25;;
10769;SDS011;5437;50.852;4.438;2023-05-10T00:18:41;9.15;;;6.40;;
10769;SDS011;5437;50.852;4.438;2023-05-10T00:21:07;8.15;;;6.30;;
10769;SDS011;5437;50.852;4.438;2023-05-10T00:23:34;9.82;;;6.30;;
10769;SDS011;5437;50.852;4.438;2023-05-10T00:26:00;9.75;;;6.78;;
10769;SDS011;5437;50.852;4.438;2023-05-10T00:28:27;11.18;;;7.32;;
10769;SDS011;5437;50.852;4.438;2023-05-10T00:30:53;8.73;;;6.47;;
10769;SDS011;5437;50.852;4.438;2023-05-10T00:33:20;10.38;;;7.45;;
10769;SDS011;5437;50.852;4.438;2023-05-10T00:35:46;8.45;;;6.82;;
10769;SDS011;5437;50.852;4.438;2023-05-10T00:38:12;8.57;;;6.80;;
10769;SDS011;5437;50.852;4.438;2023-05-10T00:40:39;12.98;;;7.40;;
10769;SDS011;5437;50.852;4.438;2023-05-10T00:43:05;9.88;;;7.45;;
10769;SDS011;5437;50.852;4.438;2023-05-10T00:45:32;11.18;;;7.55;;
10769;SDS011;5437;50.852;4.438;2023-05-10T00:47:59;10.55;;;7.28;;
10769;SDS011;5437;50.852;4.438;2023-05-10T00:50:27;11.25;;;7.30;;
10769;SDS011;5437;50.852;4.438;2023-05-10T00:52:53;10.82;;;7.63;;
10769;SDS011;5437;50.852;4.438;2023-05-10T00:55:20;12.55;;;8.10;;
10769;SDS011;5437;50.852;4.438;2023-05-10T00:57:48;14.23;;;7.93;;
10769;SDS011;5437;50.852;4.438;2023-05-10T01:00:15;11.40;;;8.00;;
10769;SDS011;5437;50.852;4.438;2023-05-10T01:02:44;12.23;;;8.18;;
10769;SDS011;5437;50.852;4.438;2023-05-10T01:05:11;11.63;;;7.93;;
10769;SDS011;5437;50.852;4.438;2023-05-10T01:07:37;10.45;;;7.78;;
10769;SDS011;5437;50.852;4.438;2023-05-10T01:10:04;12.23;;;7.75;;
10769;SDS011;5437;50.852;4.438;2023-05-10T01:12:30;13.40;;;8.10;;
10769;SDS011;5437;50.852;4.438;2023-05-10T01:14:56;9.77;;;8.20;;
10769;SDS011;5437;50.852;4.438;2023-05-10T01:17:23;11.80;;;7.70;;
10769;SDS011;5437;50.852;4.438;2023-05-10T01:19:49;12.35;;;8.35;;
10769;SDS011;5437;50.852;4.438;2023-05-10T01:25:11;10.65;;;8.15;;
10769;SDS011;5437;50.852;4.438;2023-05-10T01:28:13;12.70;;;8.10;;
10769;SDS011;5437;50.852;4.438;2023-05-10T01:35:37;12.38;;;9.15;;
10769;SDS011;5437;50.852;4.438;2023-05-10T01:39:09;13.20;;;8.68;;
10769;SDS011;5437;50.852;4.438;2023-05-10T01:44:20;12.50;;;9.02;;
10769;SDS011;5437;50.852;4.438;2023-05-10T01:46:53;11.32;;;8.85;;
10769;SDS011;5437;50.852;4.438;2023-05-10T01:49:25;14.30;;;9.70;;
10769;SDS011;5437;50.852;4.438;2023-05-10T01:51:53;12.30;;;9.20;;
10769;SDS011;5437;50.852;4.438;2023-05-10T01:54:22;12.63;;;9.38;;
10769;SDS011;5437;50.852;4.438;2023-05-10T01:56:50;13.43;;;9.38;;
10769;SDS011;5437;50.852;4.438;2023-05-10T01:59:18;13.05;;;9.50;;
10769;SDS011;5437;50.852;4.438;2023-05-10T02:01:45;13.65;;;9.05;;
10769;SDS011;5437;50.852;4.438;2023-05-10T02:04:13;12.90;;;8.98;;
10769;SDS011;5437;50.852;4.438;2023-05-10T02:06:41;13.05;;;9.77;;
10769;SDS011;5437;50.852;4.438;2023-05-10T02:09:08;12.30;;;9.05;;
10769;SDS011;5437;50.852;4.438;2023-05-10T02:11:37;11.85;;;8.77;;
10769;SDS011;5437;50.852;4.438;2023-05-10T02:14:05;12.77;;;9.25;;
10769;SDS011;5437;50.852;4.438;2023-05-10T02:16:33;12.77;;;9.32;;
10769;SDS011;5437;50.852;4.438;2023-05-10T02:19:01;12.68;;;9.20;;
10769;SDS011;5437;50.852;4.438;2023-05-10T02:21:28;12.13;;;9.77;;
10769;SDS011;5437;50.852;4.438;2023-05-10T02:23:55;12.45;;;10.38;;
10769;SDS011;5437;50.852;4.438;2023-05-10T02:26:22;15.07;;;10.23;;
10769;SDS011;5437;50.852;4.438;2023-05-10T02:28:50;14.15;;;9.25;;
10769;SDS011;5437;50.852;4.438;2023-05-10T02:31:16;16.17;;;9.95;;
10769;SDS011;5437;50.852;4.438;2023-05-10T02:33:43;15.25;;;10.35;;
10769;SDS011;5437;50.852;4.438;2023-05-10T02:36:10;15.52;;;9.85;;
10769;SDS011;5437;50.852;4.438;2023-05-10T02:38:36;15.60;;;10.15;;
10769;SDS011;5437;50.852;4.438;2023-05-10T02:41:03;13.15;;;9.25;;
10769;SDS011;5437;50.852;4.438;2023-05-10T02:43:30;13.20;;;9.60;;
10769;SDS011;5437;50.852;4.438;2023-05-10T02:45:58;12.27;;;8.70;;
10769;SDS011;5437;50.852;4.438;2023-05-10T02:48:24;13.48;;;8.70;;
10769;SDS011;5437;50.852;4.438;2023-05-10T02:50:50;12.65;;;8.73;;
10769;SDS011;5437;50.852;4.438;2023-05-10T02:53:38;13.32;;;8.60;;
10769;SDS011;5437;50.852;4.438;2023-05-10T02:56:11;12.25;;;8.52;;
10769;SDS011;5437;50.852;4.438;2023-05-10T02:58:38;11.43;;;8.40;;
10769;SDS011;5437;50.852;4.438;2023-05-10T03:01:04;10.85;;;8.25;;
10769;SDS011;5437;50.852;4.438;2023-05-10T03:03:32;10.60;;;8.13;;
10769;SDS011;5437;50.852;4.438;2023-05-10T03:05:58;12.07;;;7.85;;
10769;SDS011;5437;50.852;4.438;2023-05-10T03:08:24;11.98;;;8.30;;
10769;SDS011;5437;50.852;4.438;2023-05-10T03:11:02;11.00;;;8.10;;
10769;SDS011;5437;50.852;4.438;2023-05-10T03:13:48;11.57;;;7.90;;
10769;SDS011;5437;50.852;4.438;2023-05-10T03:16:22;11.73;;;7.97;;
10769;SDS011;5437;50.852;4.438;2023-05-10T03:18:54;13.02;;;8.70;;
10769;SDS011;5437;50.852;4.438;2023-05-10T03:21:22;11.32;;;7.72;;
10769;SDS011;5437;50.852;4.438;2023-05-10T03:23:54;13.02;;;8.40;;
10769;SDS011;5437;50.852;4.438;2023-05-10T03:26:24;12.07;;;8.07;;
10769;SDS011;5437;50.852;4.438;2023-05-10T03:28:50;10.77;;;7.50;;
10769;SDS011;5437;50.852;4.438;2023-05-10T03:31:18;12.02;;;7.88;;
10769;SDS011;5437;50.852;4.438;2023-05-10T03:33:47;12.95;;;7.50;;
10769;SDS011;5437;50.852;4.438;2023-05-10T03:36:13;12.98;;;9.05;;
10769;SDS011;5437;50.852;4.438;2023-05-10T03:38:39;14.48;;;9.43;;
10769;SDS011;5437;50.852;4.438;2023-05-10T03:41:05;15.20;;;9.77;;
10769;SDS011;5437;50.852;4.438;2023-05-10T03:43:31;14.45;;;9.52;;
10769;SDS011;5437;50.852;4.438;2023-05-10T03:45:57;13.32;;;9.10;;
10769;SDS011;5437;50.852;4.438;2023-05-10T03:48:23;15.07;;;9.95;;
10769;SDS011;5437;50.852;4.438;2023-05-10T03:50:49;11.65;;;9.10;;
10769;SDS011;5437;50.852;4.438;2023-05-10T03:53:16;13.57;;;9.93;;
10769;SDS011;5437;50.852;4.438;2023-05-10T03:55:42;16.55;;;10.15;;
10769;SDS011;5437;50.852;4.438;2023-05-10T03:58:10;17.40;;;10.10;;
10769;SDS011;5437;50.852;4.438;2023-05-10T04:00:36;17.88;;;11.02;;
10769;SDS011;5437;50.852;4.438;2023-05-10T04:03:08;16.17;;;11.07;;
10769;SDS011;5437;50.852;4.438;2023-05-10T04:05:34;16.85;;;10.88;;
10769;SDS011;5437;50.852;4.438;2023-05-10T04:08:00;16.95;;;11.30;;
10769;SDS011;5437;50.852;4.438;2023-05-10T04:10:26;16.50;;;11.48;;
10769;SDS011;5437;50.852;4.438;2023-05-10T04:12:53;16.48;;;10.93;;
10769;SDS011;5437;50.852;4.438;2023-05-10T04:15:19;18.38;;;11.77;;
10769;SDS011;5437;50.852;4.438;2023-05-10T04:17:45;18.05;;;11.73;;
10769;SDS011;5437;50.852;4.438;2023-05-10T04:20:11;21.20;;;12.65;;
10769;SDS011;5437;50.852;4.438;2023-05-10T04:22:37;19.27;;;11.85;;
10769;SDS011;5437;50.852;4.438;2023-05-10T04:25:03;18.75;;;12.05;;
10769;SDS011;5437;50.852;4.438;2023-05-10T04:27:30;19.40;;;12.20;;
10769;SDS011;5437;50.852;4.438;2023-05-10T04:29:56;19.85;;;12.60;;
10769;SDS011;5437;50.852;4.438;2023-05-10T04:32:22;22.05;;;13.07;;
10769;SDS011;5437;50.852;4.438;2023-05-10T04:34:48;20.20;;;12.52;;
10769;SDS011;5437;50.852;4.438;2023-05-10T04:37:16;20.42;;;13.32;;
10769;SDS011;5437;50.852;4.438;2023-05-10T04:39:42;20.45;;;12.85;;
10769;SDS011;5437;50.852;4.438;2023-05-10T04:42:08;21.20;;;13.13;;
10769;SDS011;5437;50.852;4.438;2023-05-10T04:44:35;22.77;;;14.00;;
10769;SDS011;5437;50.852;4.438;2023-05-10T04:47:01;21.77;;;14.10;;
10769;SDS011;5437;50.852;4.438;2023-05-10T04:49:28;23.33;;;14.10;;
10769;SDS011;5437;50.852;4.438;2023-05-10T04:51:54;21.67;;;14.02;;
10769;SDS011;5437;50.852;4.438;2023-05-10T04:54:20;23.55;;;14.80;;
10769;SDS011;5437;50.852;4.438;2023-05-10T04:56:46;22.08;;;14.45;;
10769;SDS011;5437;50.852;4.438;2023-05-10T04:59:12;23.67;;;14.48;;
10769;SDS011;5437;50.852;4.438;2023-05-10T05:01:39;22.10;;;14.73;;
10769;SDS011;5437;50.852;4.438;2023-05-10T05:04:05;23.27;;;14.18;;
10769;SDS011;5437;50.852;4.438;2023-05-10T05:06:31;22.42;;;14.75;;
10769;SDS011;5437;50.852;4.438;2023-05-10T05:08:57;24.45;;;14.90;;
10769;SDS011;5437;50.852;4.438;2023-05-10T05:11:23;22.05;;;14.80;;
10769;SDS011;5437;50.852;4.438;2023-05-10T05:13:50;22.38;;;15.40;;
10769;SDS011;5437;50.852;4.438;2023-05-10T05:16:16;22.73;;;15.18;;
10769;SDS011;5437;50.852;4.438;2023-05-10T05:18:43;22.00;;;14.00;;
10769;SDS011;5437;50.852;4.438;2023-05-10T05:21:15;20.88;;;14.23;;
10769;SDS011;5437;50.852;4.438;2023-05-10T05:23:41;21.02;;;13.90;;
10769;SDS011;5437;50.852;4.438;2023-05-10T05:26:08;21.13;;;13.93;;
10769;SDS011;5437;50.852;4.438;2023-05-10T05:28:34;22.13;;;15.18;;
10769;SDS011;5437;50.852;4.438;2023-05-10T05:31:02;22.42;;;14.55;;
10769;SDS011;5437;50.852;4.438;2023-05-10T05:33:28;21.30;;;13.80;;
10769;SDS011;5437;50.852;4.438;2023-05-10T05:35:54;17.50;;;13.45;;
10769;SDS011;5437;50.852;4.438;2023-05-10T05:38:21;21.20;;;14.25;;
10769;SDS011;5437;50.852;4.438;2023-05-10T05:40:47;20.65;;;14.50;;
10769;SDS011;5437;50.852;4.438;2023-05-10T05:43:13;19.38;;;13.77;;
10769;SDS011;5437;50.852;4.438;2023-05-10T05:45:39;21.42;;;14.38;;
10769;SDS011;5437;50.852;4.438;2023-05-10T05:48:05;16.77;;;11.85;;
10769;SDS011;5437;50.852;4.438;2023-05-10T05:50:31;14.30;;;10.38;;
10769;SDS011;5437;50.852;4.438;2023-05-10T05:52:57;14.30;;;9.95;;
10769;SDS011;5437;50.852;4.438;2023-05-10T05:55:23;15.25;;;9.32;;
10769;SDS011;5437;50.852;4.438;2023-05-10T05:57:50;13.20;;;9.25;;
10769;SDS011;5437;50.852;4.438;2023-05-10T06:00:16;13.73;;;8.60;;
10769;SDS011;5437;50.852;4.438;2023-05-10T06:02:43;13.52;;;9.02;;
10769;SDS011;5437;50.852;4.438;2023-05-10T06:05:09;11.73;;;8.70;;
10769;SDS011;5437;50.852;4.438;2023-05-10T06:07:35;12.85;;;9.45;;
10769;SDS011;5437;50.852;4.438;2023-05-10T06:10:01;14.98;;;9.63;;
10769;SDS011;5437;50.852;4.438;2023-05-10T06:12:27;13.38;;;9.23;;
10769;SDS011;5437;50.852;4.438;2023-05-10T06:14:54;12.75;;;10.02;;
10769;SDS011;5437;50.852;4.438;2023-05-10T06:17:20;12.57;;;9.25;;
10769;SDS011;5437;50.852;4.438;2023-05-10T06:19:46;15.27;;;10.25;;
10769;SDS011;5437;50.852;4.438;2023-05-10T06:22:12;16.20;;;10.20;;
10769;SDS011;5437;50.852;4.438;2023-05-10T06:24:38;12.20;;;9.38;;
10769;SDS011;5437;50.852;4.438;2023-05-10T06:27:05;14.50;;;9.65;;
10769;SDS011;5437;50.852;4.438;2023-05-10T06:29:32;12.20;;;8.50;;
10769;SDS011;5437;50.852;4.438;2023-05-10T06:31:58;14.00;;;8.13;;
10769;SDS011;5437;50.852;4.438;2023-05-10T06:34:24;14.02;;;8.77;;
10769;SDS011;5437;50.852;4.438;2023-05-10T06:36:50;12.02;;;7.75;;
10769;SDS011;5437;50.852;4.438;2023-05-10T06:39:16;10.45;;;6.47;;
10769;SDS011;5437;50.852;4.438;2023-05-10T06:41:42;10.00;;;6.78;;
10769;SDS011;5437;50.852;4.438;2023-05-10T06:44:08;10.98;;;6.72;;
10769;SDS011;5437;50.852;4.438;2023-05-10T06:46:35;8.85;;;5.53;;
10769;SDS011;5437;50.852;4.438;2023-05-10T06:49:01;8.27;;;4.60;;
10769;SDS011;5437;50.852;4.438;2023-05-10T06:51:27;5.10;;;4.22;;
10769;SDS011;5437;50.852;4.438;2023-05-10T06:53:53;4.82;;;3.90;;
10769;SDS011;5437;50.852;4.438;2023-05-10T06:56:19;7.03;;;3.83;;
10769;SDS011;5437;50.852;4.438;2023-05-10T06:58:46;5.15;;;4.15;;
10769;SDS011;5437;50.852;4.438;2023-05-10T07:01:12;7.40;;;5.20;;
10769;SDS011;5437;50.852;4.438;2023-05-10T07:03:38;7.93;;;5.05;;
10769;SDS011;5437;50.852;4.438;2023-05-10T07:06:05;6.47;;;5.30;;
10769;SDS011;5437;50.852;4.438;2023-05-10T07:08:32;7.43;;;5.30;;
10769;SDS011;5437;50.852;4.438;2023-05-10T07:13:28;9.35;;;6.10;;
10769;SDS011;5437;50.852;4.438;2023-05-10T07:15:54;8.32;;;5.60;;
10769;SDS011;5437;50.852;4.438;2023-05-10T07:18:20;8.15;;;5.78;;
10769;SDS011;5437;50.852;4.438;2023-05-10T07:20:46;8.65;;;5.90;;
10769;SDS011;5437;50.852;4.438;2023-05-10T07:23:12;8.80;;;6.13;;
10769;SDS011;5437;50.852;4.438;2023-05-10T07:25:38;11.85;;;5.80;;
10769;SDS011;5437;50.852;4.438;2023-05-10T07:28:04;9.30;;;7.00;;
10769;SDS011;5437;50.852;4.438;2023-05-10T07:30:30;9.13;;;6.78;;
10769;SDS011;5437;50.852;4.438;2023-05-10T07:32:56;10.95;;;7.22;;
10769;SDS011;5437;50.852;4.438;2023-05-10T07:35:22;11.77;;;7.25;;
10769;SDS011;5437;50.852;4.438;2023-05-10T07:37:48;10.70;;;7.55;;
10769;SDS011;5437;50.852;4.438;2023-05-10T07:40:14;12.32;;;7.70;;
10769;SDS011;5437;50.852;4.438;2023-05-10T07:42:40;12.82;;;8.60;;
10769;SDS011;5437;50.852;4.438;2023-05-10T07:45:06;14.15;;;10.05;;
10769;SDS011;5437;50.852;4.438;2023-05-10T07:47:33;11.10;;;8.50;;
10769;SDS011;5437;50.852;4.438;2023-05-10T07:49:59;12.35;;;8.88;;
10769;SDS011;5437;50.852;4.438;2023-05-10T07:52:25;14.88;;;8.75;;
10769;SDS011;5437;50.852;4.438;2023-05-10T07:54:51;14.20;;;8.48;;
10769;SDS011;5437;50.852;4.438;2023-05-10T07:57:18;11.88;;;8.23;;
10769;SDS011;5437;50.852;4.438;2023-05-10T07:59:44;12.40;;;8.05;;
10769;SDS011;5437;50.852;4.438;2023-05-10T08:02:10;10.00;;;6.90;;
10769;SDS011;5437;50.852;4.438;2023-05-10T08:04:36;9.40;;;6.75;;
10769;SDS011;5437;50.852;4.438;2023-05-10T08:07:02;10.68;;;7.38;;
10769;SDS011;5437;50.852;4.438;2023-05-10T08:09:28;12.05;;;7.45;;
10769;SDS011;5437;50.852;4.438;2023-05-10T08:11:54;8.95;;;6.68;;
10769;SDS011;5437;50.852;4.438;2023-05-10T08:14:21;10.18;;;6.78;;
10769;SDS011;5437;50.852;4.438;2023-05-10T08:16:47;10.30;;;6.55;;
10769;SDS011;5437;50.852;4.438;2023-05-10T08:19:13;11.57;;;7.07;;
10769;SDS011;5437;50.852;4.438;2023-05-10T08:21:43;9.32;;;6.80;;
10769;SDS011;5437;50.852;4.438;2023-05-10T08:24:09;11.98;;;8.45;;
10769;SDS011;5437;50.852;4.438;2023-05-10T08:26:36;10.32;;;6.57;;
10769;SDS011;5437;50.852;4.438;2023-05-10T08:29:02;8.85;;;6.15;;
10769;SDS011;5437;50.852;4.438;2023-05-10T08:31:28;8.32;;;6.45;;
10769;SDS011;5437;50.852;4.438;2023-05-10T08:33:54;11.40;;;6.90;;
10769;SDS011;5437;50.852;4.438;2023-05-10T08:36:20;10.70;;;7.05;;
10769;SDS011;5437;50.852;4.438;2023-05-10T08:38:51;8.90;;;6.40;;
10769;SDS011;5437;50.852;4.438;2023-05-10T08:41:21;9.30;;;6.47;;
10769;SDS011;5437;50.852;4.438;2023-05-10T08:43:49;8.10;;;5.70;;
10769;SDS011;5437;50.852;4.438;2023-05-10T08:46:17;7.15;;;5.60;;
10769;SDS011;5437;50.852;4.438;2023-05-10T08:48:44;8.15;;;4.88;;
10769;SDS011;5437;50.852;4.438;2023-05-10T08:51:12;7.68;;;5.18;;
10769;SDS011;5437;50.852;4.438;2023-05-10T08:53:39;9.95;;;5.53;;
10769;SDS011;5437;50.852;4.438;2023-05-10T08:56:05;7.13;;;5.07;;
10769;SDS011;5437;50.852;4.438;2023-05-10T08:58:32;7.63;;;5.20;;
10769;SDS011;5437;50.852;4.438;2023-05-10T09:00:58;8.23;;;5.35;;
10769;SDS011;5437;50.852;4.438;2023-05-10T09:03:25;7.20;;;4.97;;
10769;SDS011;5437;50.852;4.438;2023-05-10T09:05:51;6.65;;;5.00;;
10769;SDS011;5437;50.852;4.438;2023-05-10T09:08:17;7.53;;;5.35;;
10769;SDS011;5437;50.852;4.438;2023-05-10T09:10:44;7.18;;;5.38;;
10769;SDS011;5437;50.852;4.438;2023-05-10T09:13:12;7.53;;;6.07;;
10769;SDS011;5437;50.852;4.438;2023-05-10T09:15:39;7.03;;;4.85;;
10769;SDS011;5437;50.852;4.438;2023-05-10T09:18:05;8.25;;;5.70;;
10769;SDS011;5437;50.852;4.438;2023-05-10T09:20:31;6.65;;;5.35;;
10769;SDS011;5437;50.852;4.438;2023-05-10T09:22:57;7.95;;;5.05;;
10769;SDS011;5437;50.852;4.438;2023-05-10T09:25:23;7.20;;;5.20;;
10769;SDS011;5437;50.852;4.438;2023-05-10T09:27:50;7.55;;;5.45;;
10769;SDS011;5437;50.852;4.438;2023-05-10T09:30:17;6.88;;;4.85;;
10769;SDS011;5437;50.852;4.438;2023-05-10T09:32:44;6.10;;;4.80;;
10769;SDS011;5437;50.852;4.438;2023-05-10T09:35:11;6.63;;;4.95;;
10769;SDS011;5437;50.852;4.438;2023-05-10T09:37:42;6.50;;;4.80;;
10769;SDS011;5437;50.852;4.438;2023-05-10T09:40:12;6.45;;;5.13;;
10769;SDS011;5437;50.852;4.438;2023-05-10T09:42:38;6.78;;;4.28;;
10769;SDS011;5437;50.852;4.438;2023-05-10T09:45:04;5.95;;;4.60;;
10769;SDS011;5437;50.852;4.438;2023-05-10T09:47:34;5.60;;;4.00;;
10769;SDS011;5437;50.852;4.438;2023-05-10T09:50:01;5.55;;;4.20;;
10769;SDS011;5437;50.852;4.438;2023-05-10T09:52:29;4.97;;;3.55;;
10769;SDS011;5437;50.852;4.438;2023-05-10T09:54:55;3.83;;;3.42;;
10769;SDS011;5437;50.852;4.438;2023-05-10T09:57:21;4.05;;;3.58;;
10769;SDS011;5437;50.852;4.438;2023-05-10T09:59:48;4.03;;;3.38;;
10769;SDS011;5437;50.852;4.438;2023-05-10T10:02:15;4.22;;;3.45;;
10769;SDS011;5437;50.852;4.438;2023-05-10T10:04:42;4.13;;;3.67;;
10769;SDS011;5437;50.852;4.438;2023-05-10T10:07:08;4.43;;;3.97;;
10769;SDS011;5437;50.852;4.438;2023-05-10T10:09:35;4.88;;;3.65;;
10769;SDS011;5437;50.852;4.438;2023-05-10T10:12:01;4.60;;;4.10;;
10769;SDS011;5437;50.852;4.438;2023-05-10T10:14:28;5.22;;;3.65;;
10769;SDS011;5437;50.852;4.438;2023-05-10T10:16:55;4.15;;;3.75;;
10769;SDS011;5437;50.852;4.438;2023-05-10T10:19:21;4.82;;;3.83;;
10769;SDS011;5437;50.852;4.438;2023-05-10T10:21:48;4.18;;;3.78;;
10769;SDS011;5437;50.852;4.438;2023-05-10T10:24:14;4.43;;;3.58;;
10769;SDS011;5437;50.852;4.438;2023-05-10T10:26:41;3.88;;;3.50;;
10769;SDS011;5437;50.852;4.438;2023-05-10T10:29:31;5.65;;;4.03;;
10769;SDS011;5437;50.852;4.438;2023-05-10T10:34:31;5.07;;;4.20;;
10769;SDS011;5437;50.852;4.438;2023-05-10T10:36:57;4.28;;;3.88;;
10769;SDS011;5437;50.852;4.438;2023-05-10T10:39:29;4.38;;;3.97;;
10769;SDS011;5437;50.852;4.438;2023-05-10T10:41:56;4.97;;;4.03;;
10769;SDS011;5437;50.852;4.438;2023-05-10T10:47:01;4.93;;;3.85;;
10769;SDS011;5437;50.852;4.438;2023-05-10T10:49:30;4.35;;;3.95;;
10769;SDS011;5437;50.852;4.438;2023-05-10T10:54:46;4.32;;;3.92;;
10769;SDS011;5437;50.852;4.438;2023-05-10T10:57:17;5.05;;;4.20;;
10769;SDS011;5437;50.852;4.438;2023-05-10T10:59:44;4.35;;;3.95;;
10769;SDS011;5437;50.852;4.438;2023-05-10T11:02:17;4.25;;;3.67;;
10769;SDS011;5437;50.852;4.438;2023-05-10T11:04:56;4.22;;;3.83;;
10769;SDS011;5437;50.852;4.438;2023-05-10T11:07:22;4.45;;;4.00;;
10769;SDS011;5437;50.852;4.438;2023-05-10T11:09:49;4.45;;;3.72;;
10769;SDS011;5437;50.852;4.438;2023-05-10T11:12:15;4.80;;;4.22;;
10769;SDS011;5437;50.852;4.438;2023-05-10T11:14:41;4.43;;;4.03;;
10769;SDS011;5437;50.852;4.438;2023-05-10T11:20:06;4.22;;;3.58;;
10769;SDS011;5437;50.852;4.438;2023-05-10T11:22:48;3.50;;;3.20;;
10769;SDS011;5437;50.852;4.438;2023-05-10T11:25:15;4.78;;;4.05;;
10769;SDS011;5437;50.852;4.438;2023-05-10T11:27:41;4.72;;;4.28;;
10769;SDS011;5437;50.852;4.438;2023-05-10T11:30:09;5.13;;;4.63;;
10769;SDS011;5437;50.852;4.438;2023-05-10T11:32:37;5.22;;;4.13;;
10769;SDS011;5437;50.852;4.438;2023-05-10T11:35:07;4.60;;;4.20;;
10769;SDS011;5437;50.852;4.438;2023-05-10T11:37:34;4.20;;;3.80;;
10769;SDS011;5437;50.852;4.438;2023-05-10T11:40:00;4.35;;;3.75;;
10769;SDS011;5437;50.852;4.438;2023-05-10T11:42:27;4.75;;;4.25;;
10769;SDS011;5437;50.852;4.438;2023-05-10T11:44:54;4.20;;;3.80;;
10769;SDS011;5437;50.852;4.438;2023-05-10T11:47:20;4.15;;;3.85;;
10769;SDS011;5437;50.852;4.438;2023-05-10T11:49:46;4.63;;;3.80;;
10769;SDS011;5437;50.852;4.438;2023-05-10T11:52:12;4.60;;;3.80;;
10769;SDS011;5437;50.852;4.438;2023-05-10T11:54:51;3.90;;;3.60;;
10769;SDS011;5437;50.852;4.438;2023-05-10T11:57:20;5.00;;;4.18;;
10769;SDS011;5437;50.852;4.438;2023-05-10T11:59:46;4.85;;;3.47;;
10769;SDS011;5437;50.852;4.438;2023-05-10T12:02:13;3.75;;;3.40;;
10769;SDS011;5437;50.852;4.438;2023-05-10T12:04:40;3.80;;;3.50;;
10769;SDS011;5437;50.852;4.438;2023-05-10T12:07:06;4.07;;;3.45;;
10769;SDS011;5437;50.852;4.438;2023-05-10T12:09:32;4.25;;;3.85;;
10769;SDS011;5437;50.852;4.438;2023-05-10T12:11:58;3.75;;;3.45;;
10769;SDS011;5437;50.852;4.438;2023-05-10T12:14:25;3.90;;;3.60;;
10769;SDS011;5437;50.852;4.438;2023-05-10T12:16:51;3.65;;;3.35;;
10769;SDS011;5437;50.852;4.438;2023-05-10T12:19:18;5.13;;;3.63;;
10769;SDS011;5437;50.852;4.438;2023-05-10T12:21:47;3.47;;;3.17;;
10769;SDS011;5437;50.852;4.438;2023-05-10T12:24:14;5.93;;;3.90;;
10769;SDS011;5437;50.852;4.438;2023-05-10T12:26:42;4.70;;;4.18;;
10769;SDS011;5437;50.852;4.438;2023-05-10T12:29:12;5.32;;;4.82;;
10769;SDS011;5437;50.852;4.438;2023-05-10T12:31:55;5.45;;;4.43;;
10769;SDS011;5437;50.852;4.438;2023-05-10T12:34:30;5.07;;;4.28;;
10769;SDS011;5437;50.852;4.438;2023-05-10T12:36:56;5.25;;;4.72;;
10769;SDS011;5437;50.852;4.438;2023-05-10T12:39:23;5.35;;;4.32;;
10769;SDS011;5437;50.852;4.438;2023-05-10T12:41:50;4.60;;;4.13;;
10769;SDS011;5437;50.852;4.438;2023-05-10T12:44:16;5.57;;;4.15;;
10769;SDS011;5437;50.852;4.438;2023-05-10T12:46:42;4.97;;;4.47;;
10769;SDS011;5437;50.852;4.438;2023-05-10T12:49:08;5.18;;;4.65;;
10769;SDS011;5437;50.852;4.438;2023-05-10T12:51:35;6.25;;;5.15;;
10769;SDS011;5437;50.852;4.438;2023-05-10T12:54:02;5.47;;;4.88;;
10769;SDS011;5437;50.852;4.438;2023-05-10T12:56:28;5.53;;;5.03;;
10769;SDS011;5437;50.852;4.438;2023-05-10T12:58:54;5.57;;;5.07;;
10769;SDS011;5437;50.852;4.438;2023-05-10T13:01:20;5.05;;;4.55;;
10769;SDS011;5437;50.852;4.438;2023-05-10T13:03:46;6.40;;;5.20;;
10769;SDS011;5437;50.852;4.438;2023-05-10T13:06:13;6.32;;;5.68;;
10769;SDS011;5437;50.852;4.438;2023-05-10T13:08:39;7.60;;;6.05;;
10769;SDS011;5437;50.852;4.438;2023-05-10T13:11:05;6.05;;;5.45;;
10769;SDS011;5437;50.852;4.438;2023-05-10T13:13:31;6.45;;;5.38;;
10769;SDS011;5437;50.852;4.438;2023-05-10T13:15:57;6.13;;;5.25;;
10769;SDS011;5437;50.852;4.438;2023-05-10T13:18:23;6.25;;;4.88;;
10769;SDS011;5437;50.852;4.438;2023-05-10T13:20:51;5.10;;;4.70;;
10769;SDS011;5437;50.852;4.438;2023-05-10T13:23:17;5.20;;;4.70;;
10769;SDS011;5437;50.852;4.438;2023-05-10T13:25:43;4.32;;;3.92;;
10769;SDS011;5437;50.852;4.438;2023-05-10T13:28:09;4.35;;;3.95;;
10769;SDS011;5437;50.852;4.438;2023-05-10T13:30:35;4.57;;;4.05;;
10769;SDS011;5437;50.852;4.438;2023-05-10T13:33:01;4.28;;;3.88;;
10769;SDS011;5437;50.852;4.438;2023-05-10T13:35:27;4.20;;;3.90;;
10769;SDS011;5437;50.852;4.438;2023-05-10T13:37:53;4.55;;;3.70;;
10769;SDS011;5437;50.852;4.438;2023-05-10T13:40:22;4.32;;;3.40;;
10769;SDS011;5437;50.852;4.438;2023-05-10T13:42:48;3.47;;;2.97;;
10769;SDS011;5437;50.852;4.438;2023-05-10T13:45:14;3.78;;;3.22;;
10769;SDS011;5437;50.852;4.438;2023-05-10T13:47:41;4.50;;;4.10;;
10769;SDS011;5437;50.852;4.438;2023-05-10T13:50:07;5.03;;;4.20;;
10769;SDS011;5437;50.852;4.438;2023-05-10T13:52:33;4.57;;;4.18;;
10769;SDS011;5437;50.852;4.438;2023-05-10T13:55:00;5.38;;;4.20;;
10769;SDS011;5437;50.852;4.438;2023-05-10T13:57:26;5.47;;;4.70;;
10769;SDS011;5437;50.852;4.438;2023-05-10T13:59:53;5.65;;;4.93;;
10769;SDS011;5437;50.852;4.438;2023-05-10T14:02:20;7.38;;;5.00;;
10769;SDS011;5437;50.852;4.438;2023-05-10T14:04:46;5.80;;;5.03;;
10769;SDS011;5437;50.852;4.438;2023-05-10T14:07:12;5.72;;;4.93;;
10769;SDS011;5437;50.852;4.438;2023-05-10T14:09:38;6.03;;;5.18;;
10769;SDS011;5437;50.852;4.438;2023-05-10T14:12:04;6.65;;;5.70;;
10769;SDS011;5437;50.852;4.438;2023-05-10T14:14:30;7.00;;;5.70;;
10769;SDS011;5437;50.852;4.438;2023-05-10T14:16:56;6.55;;;5.82;;
10769;SDS011;5437;50.852;4.438;2023-05-10T14:19:23;7.45;;;6.22;;
10769;SDS011;5437;50.852;4.438;2023-05-10T14:21:49;7.35;;;6.28;;
10769;SDS011;5437;50.852;4.438;2023-05-10T14:24:16;7.30;;;6.57;;
10769;SDS011;5437;50.852;4.438;2023-05-10T14:26:42;7.63;;;6.72;;
10769;SDS011;5437;50.852;4.438;2023-05-10T14:29:08;9.75;;;7.53;;
10769;SDS011;5437;50.852;4.438;2023-05-10T14:31:34;11.75;;;7.90;;
10769;SDS011;5437;50.852;4.438;2023-05-10T14:34:01;11.35;;;8.15;;
10769;SDS011;5437;50.852;4.438;2023-05-10T14:36:27;11.38;;;8.80;;
10769;SDS011;5437;50.852;4.438;2023-05-10T14:38:54;13.18;;;9.70;;
10769;SDS011;5437;50.852;4.438;2023-05-10T14:41:20;12.70;;;9.52;;
10769;SDS011;5437;50.852;4.438;2023-05-10T14:43:46;11.90;;;9.48;;
10769;SDS011;5437;50.852;4.438;2023-05-10T14:46:12;11.90;;;9.43;;
10769;SDS011;5437;50.852;4.438;2023-05-10T14:48:38;13.10;;;9.18;;
10769;SDS011;5437;50.852;4.438;2023-05-10T14:51:04;10.65;;;8.52;;
10769;SDS011;5437;50.852;4.438;2023-05-10T14:53:31;9.95;;;8.50;;
10769;SDS011;5437;50.852;4.438;2023-05-10T14:55:57;10.70;;;8.18;;
10769;SDS011;5437;50.852;4.438;2023-05-10T14:58:25;9.75;;;8.75;;
10769;SDS011;5437;50.852;4.438;2023-05-10T15:00:51;11.60;;;9.27;;
10769;SDS011;5437;50.852;4.438;2023-05-10T15:03:17;12.48;;;9.65;;
10769;SDS011;5437;50.852;4.438;2023-05-10T15:05:44;11.50;;;9.20;;
10769;SDS011;5437;50.852;4.438;2023-05-10T15:08:10;13.55;;;9.23;;
10769;SDS011;5437;50.852;4.438;2023-05-10T15:10:37;12.88;;;9.48;;
10769;SDS011;5437;50.852;4.438;2023-05-10T15:13:03;8.25;;;6.95;;
10769;SDS011;5437;50.852;4.438;2023-05-10T15:15:30;9.30;;;7.03;;
10769;SDS011;5437;50.852;4.438;2023-05-10T15:17:56;10.52;;;6.80;;